createdAt,value
2022-10-03T00:01:59.946Z,9.37
2022-10-03T00:05:00.231Z,4.63
2022-10-03T00:08:03.179Z,6.07
2022-10-03T00:10:49.230Z,4.67
2022-10-03T00:13:25.661Z,6.60
2022-10-03T00:16:09.389Z,12.90
2022-10-03T00:18:55.380Z,6.77
2022-10-03T00:21:45.668Z,7.30
2022-10-03T00:24:26.916Z,7.27
2022-10-03T00:27:04.351Z,3.83
2022-10-03T00:29:54.699Z,6.83
2022-10-03T00:32:46.752Z,6.70
2022-10-03T00:35:31.711Z,4.93
2022-10-03T00:38:19.704Z,8.13
2022-10-03T00:41:24.205Z,9.13
2022-10-03T00:45:02.267Z,6.77
2022-10-03T00:48:12.068Z,14.60
2022-10-03T00:51:03.601Z,6.90
2022-10-03T00:54:02.190Z,8.70
2022-10-03T00:56:55.365Z,6.53
2022-10-03T00:59:38.939Z,17.77
2022-10-03T01:02:37.759Z,8.20
2022-10-03T01:05:22.040Z,10.20
2022-10-03T01:08:44.301Z,5.93
2022-10-03T01:11:26.416Z,10.50
2022-10-03T01:14:17.720Z,5.83
2022-10-03T01:16:59.915Z,5.80
2022-10-03T01:19:57.008Z,9.53
2022-10-03T01:23:06.969Z,11.73
2022-10-03T01:25:42.548Z,7.43
2022-10-03T01:28:57.035Z,10.53
2022-10-03T01:31:34.395Z,10.10
2022-10-03T01:34:12.907Z,12.37
2022-10-03T01:36:52.991Z,10.80
2022-10-03T01:39:29.258Z,9.20
2022-10-03T01:42:04.019Z,13.80
2022-10-03T01:44:52.121Z,8.30
2022-10-03T01:47:28.763Z,15.67
2022-10-03T01:50:08.820Z,9.47
2022-10-03T01:52:48.161Z,8.70
2022-10-03T01:55:25.504Z,6.20
2022-10-03T01:58:02.128Z,9.80
2022-10-03T02:00:43.673Z,8.80
2022-10-03T02:03:21.726Z,12.13
2022-10-03T02:06:02.476Z,12.00
2022-10-03T02:08:56.481Z,5.50
2022-10-03T02:11:35.793Z,12.70
2022-10-03T02:14:23.181Z,9.57
2022-10-03T02:17:05.143Z,9.30
2022-10-03T02:19:48.492Z,9.10
2022-10-03T02:22:34.338Z,5.40
2022-10-03T02:25:22.125Z,6.43
2022-10-03T02:28:30.615Z,10.20
2022-10-03T02:31:32.393Z,9.63
2022-10-03T02:34:56.965Z,6.73
2022-10-03T02:38:08.657Z,13.70
2022-10-03T02:41:04.674Z,11.20
2022-10-03T02:44:25.967Z,8.90
2022-10-03T02:48:30.544Z,10.07
2022-10-03T02:51:50.343Z,8.53
2022-10-03T02:54:56.320Z,10.40
2022-10-03T02:58:03.798Z,7.20
2022-10-03T03:00:49.337Z,6.33
2022-10-03T03:03:53.377Z,5.40
2022-10-03T03:06:55.673Z,11.20
2022-10-03T03:10:03.848Z,6.20
2022-10-03T03:13:10.373Z,12.00
2022-10-03T03:16:18.850Z,7.93
2022-10-03T03:19:04.794Z,7.30
2022-10-03T03:21:43.115Z,5.87
2022-10-03T03:24:33.653Z,9.63
2022-10-03T03:27:24.854Z,6.47
2022-10-03T03:30:03.788Z,9.60
2022-10-03T03:32:50.057Z,5.33
2022-10-03T03:35:34.567Z,7.60
2022-10-03T03:38:26.539Z,10.47
2022-10-03T03:41:22.489Z,8.60
2022-10-03T03:44:46.466Z,9.00
2022-10-03T03:47:36.469Z,6.10
2022-10-03T03:50:26.492Z,9.33
2022-10-03T03:53:29.260Z,6.33
2022-10-03T03:56:28.471Z,12.53
2022-10-03T03:59:16.466Z,9.60
2022-10-03T04:02:06.645Z,9.63
2022-10-03T04:04:56.381Z,7.53
2022-10-03T04:07:48.369Z,9.00
2022-10-03T04:10:38.375Z,5.80
2022-10-03T04:13:36.854Z,9.60
2022-10-03T04:16:55.149Z,6.20
2022-10-03T04:19:33.857Z,6.80
2022-10-03T04:22:32.286Z,10.27
2022-10-03T04:25:37.926Z,6.27
2022-10-03T04:28:58.983Z,7.40
2022-10-03T04:31:43.635Z,5.27
2022-10-03T04:34:41.369Z,13.90
2022-10-03T04:37:39.086Z,10.10
2022-10-03T04:40:27.769Z,7.40
2022-10-03T04:43:10.374Z,8.43
2022-10-03T04:46:15.246Z,6.50
2022-10-03T04:48:52.756Z,6.40
2022-10-03T04:51:37.826Z,7.53
2022-10-03T04:54:23.402Z,5.03
2022-10-03T04:57:00.790Z,5.47
2022-10-03T04:59:52.697Z,6.47
2022-10-03T05:02:35.690Z,4.77
2022-10-03T05:05:44.281Z,4.27
2022-10-03T05:08:32.890Z,6.43
2022-10-03T05:11:19.593Z,7.13
2022-10-03T05:14:03.790Z,4.30
2022-10-03T05:16:43.119Z,5.00
2022-10-03T05:19:49.420Z,8.90
2022-10-03T05:22:33.249Z,5.47
2022-10-03T05:25:17.799Z,7.70
2022-10-03T05:27:54.437Z,7.97
2022-10-03T05:30:42.136Z,5.70
2022-10-03T05:33:26.042Z,4.67
2022-10-03T05:36:13.137Z,6.27
2022-10-03T05:39:35.111Z,4.60
2022-10-03T05:42:37.357Z,6.50
2022-10-03T05:45:24.391Z,6.43
2022-10-03T05:48:01.767Z,8.77
2022-10-03T05:51:01.370Z,7.63
2022-10-03T05:54:14.103Z,4.90
2022-10-03T05:57:23.584Z,7.50
2022-10-03T06:00:12.195Z,5.90
2022-10-03T06:03:23.484Z,8.67
2022-10-03T06:06:08.136Z,5.87
2022-10-03T06:09:13.733Z,8.80
2022-10-03T06:12:05.894Z,11.57
2022-10-03T06:14:54.713Z,7.67
2022-10-03T06:17:58.887Z,6.50
2022-10-03T06:21:07.210Z,10.93
2022-10-03T06:24:31.764Z,7.60
2022-10-03T06:28:06.195Z,7.50
2022-10-03T06:31:04.031Z,7.70
2022-10-03T06:34:32.837Z,8.07
2022-10-03T06:37:49.391Z,10.60
2022-10-03T06:40:58.188Z,8.30
2022-10-03T06:44:08.984Z,6.30
2022-10-03T06:47:04.644Z,12.90
2022-10-03T06:50:19.532Z,9.80
2022-10-03T06:53:27.203Z,8.00
2022-10-03T06:56:24.737Z,8.03
2022-10-03T06:59:29.446Z,5.53
2022-10-03T07:02:50.176Z,5.90
2022-10-03T07:06:18.830Z,10.30
2022-10-03T07:09:35.695Z,6.57
2022-10-03T07:13:02.692Z,7.80
2022-10-03T07:16:28.224Z,12.00
2022-10-03T07:19:24.067Z,10.23
2022-10-03T07:22:44.991Z,7.53
2022-10-03T07:26:16.313Z,12.13
2022-10-03T07:29:36.046Z,7.87
2022-10-03T07:32:46.577Z,11.17
2022-10-03T07:35:59.085Z,9.93
2022-10-03T07:39:12.785Z,14.43
2022-10-03T07:42:43.520Z,9.97
2022-10-03T07:45:36.167Z,10.57
2022-10-03T07:48:52.396Z,8.50
2022-10-03T07:51:30.452Z,9.80
2022-10-03T07:54:37.589Z,8.70
2022-10-03T07:57:57.149Z,13.23
2022-10-03T08:00:31.059Z,9.10
2022-10-03T08:03:56.172Z,10.50
2022-10-03T08:06:38.104Z,7.77
2022-10-03T08:09:39.385Z,6.67
2022-10-03T08:12:43.033Z,10.60
2022-10-03T08:15:24.982Z,8.80
2022-10-03T08:18:58.322Z,7.57
2022-10-03T08:21:43.536Z,7.27
2022-10-03T08:24:51.335Z,5.43
2022-10-03T08:27:45.203Z,9.87
2022-10-03T08:30:23.751Z,4.83
2022-10-03T08:33:32.324Z,9.00
2022-10-03T08:36:51.852Z,7.20
2022-10-03T08:39:47.656Z,8.10
2022-10-03T08:42:51.955Z,6.40
2022-10-03T08:45:53.704Z,7.03
2022-10-03T08:49:01.870Z,7.83
2022-10-03T08:52:08.974Z,8.33
2022-10-03T08:55:21.199Z,12.43
2022-10-03T08:58:24.835Z,6.30
2022-10-03T09:01:26.130Z,4.57
2022-10-03T09:04:46.409Z,3.50
2022-10-03T09:07:58.535Z,7.37
2022-10-03T09:11:03.037Z,6.57
2022-10-03T09:14:14.656Z,3.67
2022-10-03T09:17:02.839Z,8.90
2022-10-03T09:20:24.930Z,5.63
2022-10-03T09:23:47.097Z,4.37
2022-10-03T09:27:14.742Z,7.60
2022-10-03T09:30:25.002Z,7.97
2022-10-03T09:33:50.679Z,4.10
2022-10-03T09:37:19.566Z,3.37
2022-10-03T09:40:59.296Z,4.53
2022-10-03T09:44:30.089Z,4.80
2022-10-03T09:47:31.226Z,7.17
2022-10-03T09:51:00.272Z,12.00
2022-10-03T09:54:19.663Z,4.93
2022-10-03T09:57:45.625Z,4.77
2022-10-03T10:00:27.851Z,5.97
2022-10-03T10:03:27.724Z,19.53
2022-10-03T10:06:33.322Z,3.20
2022-10-03T10:10:06.728Z,8.10
2022-10-03T10:13:15.146Z,3.53
2022-10-03T10:16:22.970Z,4.10
2022-10-03T10:19:33.269Z,5.87
2022-10-03T10:22:36.537Z,3.80
2022-10-03T10:25:45.343Z,4.37
2022-10-03T10:29:18.533Z,3.37
2022-10-03T10:32:57.590Z,7.17
2022-10-03T10:36:22.263Z,3.90
2022-10-03T10:39:31.974Z,4.33
2022-10-03T10:43:03.678Z,6.57
2022-10-03T10:45:48.280Z,3.77
2022-10-03T10:49:29.993Z,3.37
2022-10-03T10:52:40.629Z,4.90
2022-10-03T10:56:07.466Z,3.00
2022-10-03T10:59:53.436Z,3.30
2022-10-03T11:03:18.961Z,5.43
2022-10-03T11:06:43.210Z,6.70
2022-10-03T11:09:56.980Z,1.97
2022-10-03T11:13:25.142Z,5.43
2022-10-03T11:17:05.046Z,3.97
2022-10-03T11:20:41.847Z,7.20
2022-10-03T11:23:49.809Z,3.30
2022-10-03T11:27:02.061Z,7.03
2022-10-03T11:30:23.317Z,4.77
2022-10-03T11:33:54.018Z,6.20
2022-10-03T11:37:10.814Z,5.83
2022-10-03T11:39:54.840Z,6.83
2022-10-03T11:42:39.760Z,5.83
2022-10-03T11:45:21.436Z,3.03
2022-10-03T11:48:02.401Z,4.50
2022-10-03T11:50:44.874Z,5.67
2022-10-03T11:53:43.911Z,7.33
2022-10-03T11:56:33.974Z,3.47
2022-10-03T11:59:35.086Z,3.13
2022-10-03T12:02:16.193Z,7.13
2022-10-03T12:05:07.442Z,4.10
2022-10-03T12:08:05.169Z,3.80
2022-10-03T12:10:55.782Z,7.30
2022-10-03T12:13:33.522Z,4.87
2022-10-03T12:16:07.208Z,3.83
2022-10-03T12:18:55.243Z,3.73
2022-10-03T12:21:30.369Z,6.83
2022-10-03T12:24:27.525Z,4.10
2022-10-03T12:27:07.644Z,4.60
2022-10-03T12:29:41.130Z,6.30
2022-10-03T12:32:22.258Z,9.30
2022-10-03T12:35:00.762Z,4.73
2022-10-03T12:37:50.657Z,7.17
2022-10-03T12:40:27.844Z,4.10
2022-10-03T12:43:09.596Z,5.03
2022-10-03T12:45:44.056Z,5.80
2022-10-03T12:48:34.539Z,3.60
2022-10-03T12:51:13.730Z,7.13
2022-10-03T12:53:59.048Z,3.30
2022-10-03T12:56:42.253Z,4.83
2022-10-03T12:59:34.394Z,5.27
2022-10-03T13:02:30.763Z,4.90
2022-10-03T13:05:36.193Z,2.43
2022-10-03T13:08:20.445Z,5.63
2022-10-03T13:10:56.929Z,5.40
2022-10-03T13:13:33.774Z,9.63
2022-10-03T13:16:25.071Z,3.33
2022-10-03T13:19:06.234Z,5.33
2022-10-03T13:22:08.208Z,6.07
2022-10-03T13:24:43.166Z,6.47
2022-10-03T13:27:32.325Z,5.63
2022-10-03T13:30:09.696Z,5.77
2022-10-03T13:32:43.320Z,4.73
2022-10-03T13:35:54.535Z,5.70
2022-10-03T13:39:07.974Z,5.13
2022-10-03T13:41:59.671Z,4.37
2022-10-03T13:44:41.750Z,6.50
2022-10-03T13:47:31.880Z,2.77
2022-10-03T13:50:06.127Z,5.57
2022-10-03T13:52:41.110Z,3.57
2022-10-03T13:55:26.574Z,6.03
2022-10-03T13:58:38.261Z,4.53
2022-10-03T14:01:47.611Z,3.90
2022-10-03T14:04:48.620Z,2.60
2022-10-03T14:07:28.639Z,3.90
2022-10-03T14:10:16.418Z,4.17
2022-10-03T14:13:16.243Z,3.53
2022-10-03T14:15:55.780Z,4.10
2022-10-03T14:18:40.445Z,6.73
2022-10-03T14:21:49.783Z,6.27
2022-10-03T14:24:42.932Z,4.37
2022-10-03T14:27:50.154Z,3.70
2022-10-03T14:30:23.628Z,7.70
2022-10-03T14:33:10.946Z,3.10
2022-10-03T14:35:47.571Z,4.67
2022-10-03T14:39:05.127Z,8.90
2022-10-03T14:42:18.316Z,3.50
2022-10-03T14:44:53.726Z,2.93
2022-10-03T14:47:24.105Z,4.47
2022-10-03T14:49:59.765Z,3.00
2022-10-03T14:52:37.585Z,3.77
2022-10-03T14:55:17.667Z,3.77
2022-10-03T14:58:09.866Z,3.27
2022-10-03T15:00:46.725Z,5.17
2022-10-03T15:03:28.663Z,4.50
2022-10-03T15:06:03.066Z,5.43
2022-10-03T15:08:39.306Z,6.50
2022-10-03T15:11:10.133Z,5.20
2022-10-03T15:13:48.941Z,4.17
2022-10-03T15:16:23.061Z,3.00
2022-10-03T15:18:57.908Z,5.87
2022-10-03T15:21:28.459Z,4.53
2022-10-03T15:24:03.191Z,2.97
2022-10-03T15:26:37.131Z,4.87
2022-10-03T15:29:08.229Z,4.63
2022-10-03T15:31:40.213Z,1.57
2022-10-03T15:34:22.502Z,5.83
2022-10-03T15:36:55.687Z,3.50
2022-10-03T15:39:29.507Z,6.93
2022-10-03T15:42:06.236Z,3.93
2022-10-03T15:44:40.130Z,2.27
2022-10-03T15:47:14.663Z,3.13
2022-10-03T15:49:50.930Z,7.50
2022-10-03T15:52:25.788Z,3.97
2022-10-03T15:55:14.334Z,3.93
2022-10-03T15:57:47.582Z,2.90
2022-10-03T16:00:30.579Z,2.53
2022-10-03T16:03:16.119Z,3.57
2022-10-03T16:06:01.808Z,4.90
2022-10-03T16:08:36.171Z,4.77
2022-10-03T16:11:14.008Z,4.50
2022-10-03T16:13:45.930Z,4.33
2022-10-03T16:16:23.753Z,6.10
2022-10-03T16:19:20.301Z,6.80
2022-10-03T16:21:57.492Z,4.00
2022-10-03T16:24:35.209Z,4.47
2022-10-03T16:27:14.615Z,4.30
2022-10-03T16:29:52.308Z,8.80
2022-10-03T16:32:24.873Z,12.50
2022-10-03T16:34:54.625Z,8.57
2022-10-03T16:37:29.948Z,4.33
2022-10-03T16:40:02.872Z,6.63
2022-10-03T16:42:42.588Z,3.67
2022-10-03T16:45:26.397Z,3.70
2022-10-03T16:48:15.874Z,5.73
2022-10-03T16:50:50.145Z,4.47
2022-10-03T16:53:22.350Z,4.83
2022-10-03T16:55:59.903Z,5.13
2022-10-03T16:58:33.290Z,5.93
2022-10-03T17:04:00.942Z,9.50
2022-10-03T17:06:32.769Z,5.83
2022-10-03T17:09:08.848Z,5.10
2022-10-03T17:11:39.818Z,4.77
2022-10-03T17:14:10.459Z,6.30
2022-10-03T17:16:47.608Z,5.83
2022-10-03T17:19:27.251Z,7.10
2022-10-03T17:22:03.810Z,7.97
2022-10-03T17:24:44.514Z,5.40
2022-10-03T17:27:29.537Z,6.10
2022-10-03T17:30:02.956Z,6.20
2022-10-03T17:32:38.943Z,4.73
2022-10-03T17:35:15.600Z,7.10
2022-10-03T17:38:30.492Z,6.53
2022-10-03T17:41:17.149Z,6.20
2022-10-03T17:43:51.278Z,10.67
2022-10-03T17:46:28.423Z,6.87
2022-10-03T17:49:08.284Z,7.37
2022-10-03T17:51:41.951Z,6.50
2022-10-03T17:54:16.461Z,7.40
2022-10-03T17:56:53.136Z,5.33
2022-10-03T17:59:28.147Z,8.07
2022-10-03T18:02:03.231Z,6.67
2022-10-03T18:04:37.426Z,8.70
2022-10-03T18:07:10.779Z,6.43
2022-10-03T18:09:47.861Z,10.83
2022-10-03T18:12:33.657Z,7.50
2022-10-03T18:15:42.471Z,11.67
2022-10-03T18:19:08.488Z,8.10
2022-10-03T18:21:55.330Z,8.03
2022-10-03T18:24:39.395Z,6.03
2022-10-03T18:27:51.452Z,13.13
2022-10-03T18:30:25.428Z,10.10
2022-10-03T18:32:59.342Z,7.37
2022-10-03T18:35:30.901Z,10.03
2022-10-03T18:38:14.121Z,10.90
2022-10-03T18:40:49.467Z,10.07
2022-10-03T18:43:34.947Z,7.73
2022-10-03T18:46:16.391Z,6.80
2022-10-03T18:49:30.029Z,12.10
2022-10-03T18:51:57.975Z,8.93
2022-10-03T18:54:42.244Z,11.17
2022-10-03T18:57:19.838Z,6.80
2022-10-03T18:59:57.049Z,11.43
2022-10-03T19:02:37.823Z,9.30
2022-10-03T19:05:16.994Z,9.83
2022-10-03T19:07:52.181Z,12.20
2022-10-03T19:10:37.222Z,9.70
2022-10-03T19:13:19.561Z,6.30
2022-10-03T19:16:23.249Z,7.70
2022-10-03T19:19:07.011Z,8.37
2022-10-03T19:21:40.227Z,9.27
2022-10-03T19:24:14.742Z,7.03
2022-10-03T19:26:52.280Z,8.60
2022-10-03T19:29:26.497Z,10.53
2022-10-03T19:32:03.616Z,17.60
2022-10-03T19:34:39.085Z,9.43
2022-10-03T19:37:16.897Z,10.77
2022-10-03T19:39:46.092Z,8.17
2022-10-03T19:42:34.246Z,11.33
2022-10-03T19:45:02.837Z,9.30
2022-10-03T19:47:35.096Z,10.03
2022-10-03T19:50:12.736Z,11.07
2022-10-03T19:52:41.889Z,11.13
2022-10-03T19:55:18.555Z,15.63
2022-10-03T19:57:52.541Z,12.37
2022-10-03T20:00:29.256Z,13.10
2022-10-03T20:03:13.250Z,9.63
2022-10-03T20:05:51.942Z,14.23
2022-10-03T20:08:34.306Z,11.67
2022-10-03T20:11:22.553Z,9.20
2022-10-03T20:13:51.379Z,11.30
2022-10-03T20:16:25.179Z,13.67
2022-10-03T20:19:05.449Z,8.87
2022-10-03T20:21:34.515Z,11.10
2022-10-03T20:24:09.141Z,9.13
2022-10-03T20:26:45.792Z,15.90
2022-10-03T20:29:29.629Z,12.70
2022-10-03T20:32:03.491Z,11.43
2022-10-03T20:34:37.592Z,12.10
2022-10-03T20:37:36.603Z,11.80
2022-10-03T20:40:24.147Z,12.60
2022-10-03T20:43:00.760Z,17.73
2022-10-03T20:45:31.300Z,12.93
2022-10-03T20:48:04.153Z,14.93
2022-10-03T20:50:38.246Z,14.40
2022-10-03T20:53:18.590Z,11.20
2022-10-03T20:55:52.067Z,13.50
2022-10-03T20:58:30.053Z,10.67
2022-10-03T21:01:03.227Z,13.67
2022-10-03T21:03:40.284Z,10.70
2022-10-03T21:06:21.069Z,15.40
2022-10-03T21:08:50.074Z,12.70
2022-10-03T21:11:24.139Z,14.80
2022-10-03T21:13:57.445Z,8.73
2022-10-03T21:16:29.578Z,14.70
2022-10-03T21:19:02.794Z,13.67
2022-10-03T21:21:42.206Z,11.30
2022-10-03T21:24:27.739Z,11.97
2022-10-03T21:27:03.697Z,14.67
2022-10-03T21:29:35.457Z,17.00
2022-10-03T21:32:52.807Z,16.57
2022-10-03T21:35:27.628Z,16.47
2022-10-03T21:38:22.292Z,17.10
2022-10-03T21:41:17.713Z,19.60
2022-10-03T21:43:54.147Z,16.10
2022-10-03T21:46:40.417Z,21.07
2022-10-03T21:49:36.569Z,17.37
2022-10-03T21:52:39.230Z,19.73
2022-10-03T21:55:51.198Z,13.83
2022-10-03T21:58:46.265Z,17.03
2022-10-03T22:01:23.955Z,14.77
2022-10-03T22:03:58.737Z,11.03
2022-10-03T22:06:31.677Z,14.73
2022-10-03T22:09:04.690Z,13.87
2022-10-03T22:11:44.122Z,17.20
2022-10-03T22:14:30.337Z,9.87
2022-10-03T22:17:07.668Z,18.60
2022-10-03T22:19:41.774Z,13.73
2022-10-03T22:22:40.811Z,12.87
2022-10-03T22:25:29.381Z,13.70
2022-10-03T22:28:09.729Z,13.00
2022-10-03T22:30:45.573Z,14.43
2022-10-03T22:33:23.297Z,12.50
2022-10-03T22:35:55.375Z,14.60
2022-10-03T22:38:29.243Z,16.83
2022-10-03T22:41:04.195Z,13.97
2022-10-03T22:43:37.124Z,15.53
2022-10-03T22:46:08.375Z,17.00
2022-10-03T22:48:43.633Z,16.83
2022-10-03T22:51:16.066Z,15.47
2022-10-03T22:53:49.489Z,15.47
2022-10-03T22:56:44.202Z,17.30
2022-10-03T22:59:20.371Z,13.80
2022-10-03T23:01:51.826Z,17.33
2022-10-03T23:04:31.674Z,16.40
2022-10-03T23:07:27.066Z,14.10
2022-10-03T23:10:08.674Z,15.00
2022-10-03T23:12:45.627Z,16.17
2022-10-03T23:15:18.697Z,15.57
2022-10-03T23:18:15.778Z,14.17
2022-10-03T23:21:07.577Z,15.30
2022-10-03T23:23:55.808Z,18.20
2022-10-03T23:26:48.101Z,17.57
2022-10-03T23:29:18.281Z,16.73
2022-10-03T23:32:02.592Z,16.20
2022-10-03T23:35:08.073Z,12.43
2022-10-03T23:37:43.785Z,15.73
2022-10-03T23:40:43.797Z,16.30
2022-10-03T23:43:34.152Z,12.97
2022-10-03T23:46:05.615Z,15.10
2022-10-03T23:48:45.608Z,16.90
2022-10-03T23:51:17.639Z,19.03
2022-10-03T23:53:51.400Z,13.93
2022-10-03T23:56:35.643Z,15.17
2022-10-03T23:59:24.033Z,16.00
